createdAt,value
2018-01-23T00:01:31.703Z,22.80
2018-01-23T00:04:02.883Z,28.87
2018-01-23T00:06:33.986Z,26.17
2018-01-23T00:09:05.132Z,26.27
2018-01-23T00:11:36.357Z,25.17
2018-01-23T00:14:07.422Z,23.93
2018-01-23T00:16:38.984Z,26.10
2018-01-23T00:19:10.028Z,25.00
2018-01-23T00:21:41.113Z,24.03
2018-01-23T00:24:12.169Z,24.27
2018-01-23T00:26:43.284Z,23.10
2018-01-23T00:29:14.326Z,19.60
2018-01-23T00:31:45.641Z,20.80
2018-01-23T00:34:16.683Z,19.73
2018-01-23T00:36:47.799Z,20.80
2018-01-23T00:39:18.876Z,19.00
2018-01-23T00:41:49.999Z,19.43
2018-01-23T00:44:21.037Z,13.63
2018-01-23T00:46:52.072Z,12.83
2018-01-23T00:49:23.860Z,13.00
2018-01-23T00:51:54.939Z,10.80
2018-01-23T00:54:26.062Z,8.30
2018-01-23T00:56:57.136Z,8.30
2018-01-23T00:59:28.222Z,8.10
2018-01-23T01:01:59.285Z,8.00
2018-01-23T01:04:30.402Z,10.40
2018-01-23T01:07:01.532Z,6.20
2018-01-23T01:09:32.577Z,7.23
2018-01-23T01:12:03.692Z,6.80
2018-01-23T01:14:34.757Z,5.07
2018-01-23T01:17:06.045Z,8.63
2018-01-23T01:19:37.093Z,5.17
2018-01-23T01:22:08.213Z,7.27
2018-01-23T01:24:40.007Z,8.40
2018-01-23T01:27:11.094Z,6.10
2018-01-23T01:29:42.176Z,4.93
2018-01-23T01:32:13.238Z,6.67
2018-01-23T01:34:44.332Z,5.00
2018-01-23T01:37:15.429Z,6.80
2018-01-23T01:39:46.581Z,7.13
2018-01-23T01:42:17.624Z,6.70
2018-01-23T01:44:48.716Z,7.40
2018-01-23T01:47:19.777Z,7.83
2018-01-23T01:49:50.831Z,7.10
2018-01-23T01:52:21.877Z,7.30
2018-01-23T01:54:59.933Z,8.07
2018-01-23T01:57:31.012Z,11.03
2018-01-23T02:00:02.105Z,7.53
2018-01-23T02:02:33.203Z,6.83
2018-01-23T02:05:04.263Z,8.60
2018-01-23T02:07:35.347Z,8.13
2018-01-23T02:10:06.411Z,10.60
2018-01-23T02:12:37.462Z,8.87
2018-01-23T02:15:08.525Z,9.20
2018-01-23T02:17:39.631Z,10.23
2018-01-23T02:20:10.723Z,11.20
2018-01-23T02:22:41.814Z,10.30
2018-01-23T02:25:12.876Z,8.57
2018-01-23T02:27:43.977Z,10.97
2018-01-23T02:30:15.836Z,11.43
2018-01-23T02:32:46.931Z,11.47
2018-01-23T02:35:18.002Z,12.00
2018-01-23T02:37:49.104Z,13.30
2018-01-23T02:40:20.194Z,10.07
2018-01-23T02:42:51.268Z,10.93
2018-01-23T02:45:22.360Z,12.00
2018-01-23T02:47:53.402Z,13.50
2018-01-23T02:50:24.495Z,17.80
2018-01-23T02:52:55.529Z,16.63
2018-01-23T02:55:26.619Z,17.10
2018-01-23T02:57:57.729Z,12.93
2018-01-23T03:00:28.820Z,17.37
2018-01-23T03:02:59.911Z,17.07
2018-01-23T03:05:30.930Z,20.13
2018-01-23T03:08:02.028Z,14.87
2018-01-23T03:10:33.093Z,18.63
2018-01-23T03:13:04.192Z,17.50
2018-01-23T03:15:35.291Z,17.07
2018-01-23T03:18:06.344Z,17.00
2018-01-23T03:20:37.414Z,17.20
2018-01-23T03:23:08.512Z,20.57
2018-01-23T03:25:39.623Z,23.10
2018-01-23T03:28:10.665Z,18.40
2018-01-23T03:30:41.715Z,20.43
2018-01-23T03:33:12.782Z,16.10
2018-01-23T03:35:43.816Z,19.77
2018-01-23T03:38:14.897Z,15.67
2018-01-23T03:40:45.961Z,18.47
2018-01-23T03:43:17.050Z,17.43
2018-01-23T03:45:48.126Z,19.43
2018-01-23T03:48:20.366Z,18.43
2018-01-23T03:50:51.918Z,22.23
2018-01-23T03:53:23.022Z,21.03
2018-01-23T03:55:54.051Z,19.13
2018-01-23T03:58:25.115Z,19.13
2018-01-23T04:00:56.155Z,21.17
2018-01-23T04:03:27.256Z,15.30
2018-01-23T04:05:58.353Z,19.77
2018-01-23T04:08:29.453Z,20.07
2018-01-23T04:11:00.493Z,17.00
2018-01-23T04:13:31.564Z,14.67
2018-01-23T04:16:02.622Z,16.57
2018-01-23T04:18:33.699Z,16.07
2018-01-23T04:21:04.778Z,18.53
2018-01-23T04:23:35.893Z,20.07
2018-01-23T04:26:06.978Z,16.77
2018-01-23T04:28:38.079Z,14.10
2018-01-23T04:31:09.109Z,14.03
2018-01-23T04:33:40.236Z,19.40
2018-01-23T04:36:11.308Z,18.03
2018-01-23T04:38:42.375Z,16.63
2018-01-23T04:41:13.451Z,14.33
2018-01-23T04:43:44.553Z,15.27
2018-01-23T04:46:15.632Z,13.10
2018-01-23T04:48:46.823Z,13.80
2018-01-23T04:51:17.932Z,14.57
2018-01-23T04:53:49.126Z,15.53
2018-01-23T04:56:20.148Z,14.27
2018-01-23T04:58:51.235Z,14.90
2018-01-23T05:01:22.364Z,16.13
2018-01-23T05:03:53.419Z,14.57
2018-01-23T05:06:24.499Z,20.47
2018-01-23T05:08:55.569Z,18.13
2018-01-23T05:11:26.631Z,17.30
2018-01-23T05:13:57.755Z,16.47
2018-01-23T05:16:28.802Z,12.97
2018-01-23T05:18:59.924Z,16.60
2018-01-23T05:21:31.033Z,16.30
2018-01-23T05:24:02.110Z,16.43
2018-01-23T05:26:33.205Z,20.07
2018-01-23T05:29:04.276Z,13.93
2018-01-23T05:31:35.382Z,19.50
2018-01-23T05:34:06.403Z,15.73
2018-01-23T05:36:38.637Z,15.63
2018-01-23T05:39:09.730Z,18.67
2018-01-23T05:41:40.797Z,20.00
2018-01-23T05:44:11.826Z,16.83
2018-01-23T05:46:42.899Z,19.40
2018-01-23T05:49:13.984Z,16.57
2018-01-23T05:51:45.056Z,16.53
2018-01-23T05:54:16.142Z,15.37
2018-01-23T05:56:47.304Z,14.47
2018-01-23T05:59:18.368Z,15.43
2018-01-23T06:01:49.485Z,14.97
2018-01-23T06:04:20.529Z,12.97
2018-01-23T06:06:51.609Z,13.93
2018-01-23T06:09:22.925Z,17.20
2018-01-23T06:11:53.980Z,14.97
2018-01-23T06:14:25.104Z,14.60
2018-01-23T06:16:56.132Z,13.93
2018-01-23T06:19:27.219Z,14.13
2018-01-23T06:21:58.360Z,13.03
2018-01-23T06:24:29.428Z,13.80
2018-01-23T06:27:00.506Z,13.40
2018-01-23T06:29:31.579Z,11.73
2018-01-23T06:32:02.655Z,10.90
2018-01-23T06:34:33.775Z,10.47
2018-01-23T06:37:04.883Z,15.70
2018-01-23T06:39:35.951Z,12.47
2018-01-23T06:42:07.019Z,9.80
2018-01-23T06:44:38.073Z,10.50
2018-01-23T06:47:09.184Z,13.70
2018-01-23T06:49:40.273Z,16.20
2018-01-23T06:52:11.332Z,15.20
2018-01-23T06:54:42.385Z,15.73
2018-01-23T06:57:13.470Z,15.57
2018-01-23T06:59:44.748Z,15.63
2018-01-23T07:02:15.800Z,16.10
2018-01-23T07:04:46.839Z,13.83
2018-01-23T07:07:17.941Z,13.50
2018-01-23T07:09:48.993Z,18.47
2018-01-23T07:12:20.055Z,16.87
2018-01-23T07:14:51.130Z,15.27
2018-01-23T07:17:22.245Z,16.00
2018-01-23T07:19:53.315Z,21.80
2018-01-23T07:22:24.391Z,13.80
2018-01-23T07:24:55.463Z,17.50
2018-01-23T07:27:26.543Z,17.67
2018-01-23T07:29:57.643Z,13.27
2018-01-23T07:32:28.741Z,14.53
2018-01-23T07:34:59.792Z,15.33
2018-01-23T07:37:30.830Z,16.00
2018-01-23T07:42:42.889Z,18.80
2018-01-23T07:45:13.959Z,16.37
2018-01-23T07:47:45.051Z,18.67
2018-01-23T07:50:16.138Z,18.57
2018-01-23T07:52:47.224Z,18.63
2018-01-23T07:55:18.317Z,18.23
2018-01-23T07:57:49.413Z,20.50
2018-01-23T08:00:20.520Z,17.17
2018-01-23T08:02:51.614Z,17.63
2018-01-23T08:05:22.692Z,18.60
2018-01-23T08:07:53.734Z,17.10
2018-01-23T08:10:24.843Z,18.47
2018-01-23T08:12:55.899Z,17.97
2018-01-23T08:15:27.009Z,17.10
2018-01-23T08:17:58.118Z,18.10
2018-01-23T08:20:29.891Z,15.90
2018-01-23T08:23:00.988Z,15.37
2018-01-23T08:25:32.108Z,13.93
2018-01-23T08:28:03.158Z,18.70
2018-01-23T08:30:34.306Z,14.57
2018-01-23T08:33:05.353Z,18.60
2018-01-23T08:35:36.398Z,17.17
2018-01-23T08:38:07.468Z,19.97
2018-01-23T08:40:38.564Z,16.73
2018-01-23T08:43:09.635Z,15.67
2018-01-23T08:45:40.689Z,15.47
2018-01-23T08:48:11.739Z,14.53
2018-01-23T08:50:42.830Z,14.70
2018-01-23T08:53:13.939Z,14.57
2018-01-23T08:55:45.039Z,17.97
2018-01-23T08:58:16.134Z,14.63
2018-01-23T09:00:47.234Z,11.63
2018-01-23T09:03:18.314Z,12.90
2018-01-23T09:05:49.398Z,13.00
2018-01-23T09:08:20.495Z,15.03
2018-01-23T09:10:51.574Z,12.87
2018-01-23T09:13:22.616Z,12.23
2018-01-23T09:15:53.702Z,12.23
2018-01-23T09:18:24.833Z,13.30
2018-01-23T09:20:55.893Z,13.00
2018-01-23T09:23:26.968Z,13.93
2018-01-23T09:25:58.037Z,10.97
2018-01-23T09:28:29.105Z,12.40
2018-01-23T09:31:00.213Z,15.33
2018-01-23T09:33:31.325Z,11.40
2018-01-23T09:36:02.390Z,15.50
2018-01-23T09:38:33.489Z,12.23
2018-01-23T09:41:04.594Z,10.77
2018-01-23T09:43:35.671Z,14.53
2018-01-23T09:46:06.749Z,14.30
2018-01-23T09:48:37.810Z,10.30
2018-01-23T09:51:08.911Z,11.30
2018-01-23T09:53:40.010Z,11.97
2018-01-23T09:56:11.077Z,13.57
2018-01-23T09:58:42.634Z,13.20
2018-01-23T10:01:13.677Z,13.07
2018-01-23T10:03:45.084Z,11.90
2018-01-23T10:06:16.217Z,9.97
2018-01-23T10:08:47.332Z,13.80
2018-01-23T10:11:18.396Z,11.80
2018-01-23T10:13:49.448Z,12.53
2018-01-23T10:16:20.544Z,12.13
2018-01-23T10:18:51.602Z,7.70
2018-01-23T10:21:22.806Z,10.93
2018-01-23T10:23:53.931Z,10.73
2018-01-23T10:26:24.971Z,10.57
2018-01-23T10:28:56.079Z,13.33
2018-01-23T10:31:27.132Z,12.20
2018-01-23T10:33:58.176Z,13.03
2018-01-23T10:36:29.437Z,7.77
2018-01-23T10:39:00.507Z,11.03
2018-01-23T10:41:31.569Z,11.90
2018-01-23T10:44:02.660Z,7.57
2018-01-23T10:46:33.746Z,9.40
2018-01-23T10:49:05.059Z,16.57
2018-01-23T10:51:36.156Z,14.73
2018-01-23T10:54:07.234Z,13.87
2018-01-23T10:56:38.317Z,9.00
2018-01-23T10:59:09.374Z,9.97
2018-01-23T11:01:40.515Z,7.33
2018-01-23T11:04:11.610Z,10.87
2018-01-23T11:06:42.727Z,6.70
2018-01-23T11:09:13.791Z,11.00
2018-01-23T11:11:44.963Z,8.63
2018-01-23T11:14:16.013Z,10.93
2018-01-23T11:16:47.126Z,7.87
2018-01-23T11:19:18.239Z,10.80
2018-01-23T11:21:49.301Z,8.27
2018-01-23T11:24:20.540Z,8.00
2018-01-23T11:26:52.306Z,9.30
2018-01-23T11:29:23.329Z,11.37
2018-01-23T11:31:54.394Z,11.70
2018-01-23T11:34:25.434Z,9.30
2018-01-23T11:36:56.540Z,8.97
2018-01-23T11:39:28.388Z,8.47
2018-01-23T11:41:59.468Z,14.90
2018-01-23T11:44:30.516Z,7.43
2018-01-23T11:47:01.627Z,9.20
2018-01-23T11:49:32.690Z,8.50
2018-01-23T11:52:03.812Z,7.67
2018-01-23T11:54:34.881Z,8.50
2018-01-23T11:57:05.941Z,8.90
2018-01-23T11:59:36.994Z,7.07
2018-01-23T12:02:08.076Z,9.57
2018-01-23T12:04:40.443Z,7.57
2018-01-23T12:07:11.528Z,8.00
2018-01-23T12:09:42.788Z,6.47
2018-01-23T12:12:13.838Z,7.63
2018-01-23T12:14:45.105Z,8.53
2018-01-23T12:17:16.185Z,7.77
2018-01-23T12:19:47.305Z,7.33
2018-01-23T12:22:18.378Z,8.30
2018-01-23T12:24:49.441Z,8.43
2018-01-23T12:27:20.717Z,11.07
2018-01-23T12:29:51.754Z,9.43
2018-01-23T12:32:22.902Z,8.33
2018-01-23T12:34:53.980Z,10.47
2018-01-23T12:37:32.142Z,9.13
2018-01-23T12:40:03.260Z,8.23
2018-01-23T12:42:34.650Z,8.90
2018-01-23T12:45:05.727Z,9.77
2018-01-23T12:47:36.771Z,10.13
2018-01-23T12:50:07.879Z,10.53
2018-01-23T12:52:38.962Z,8.27
2018-01-23T12:55:10.062Z,11.60
2018-01-23T12:57:41.163Z,8.20
2018-01-23T13:00:12.203Z,9.10
2018-01-23T13:02:43.305Z,8.60
2018-01-23T13:05:14.393Z,8.03
2018-01-23T13:07:45.560Z,9.73
2018-01-23T13:10:16.646Z,8.27
2018-01-23T13:12:47.898Z,6.53
2018-01-23T13:15:18.991Z,6.57
2018-01-23T13:17:50.057Z,8.93
2018-01-23T13:20:21.156Z,7.40
2018-01-23T13:22:52.220Z,9.17
2018-01-23T13:25:23.324Z,8.10
2018-01-23T13:27:54.427Z,14.13
2018-01-23T13:30:25.486Z,8.13
2018-01-23T13:32:56.577Z,9.83
2018-01-23T13:35:27.648Z,9.13
2018-01-23T13:37:58.697Z,8.53
2018-01-23T13:40:29.763Z,6.60
2018-01-23T13:43:00.845Z,7.10
2018-01-23T13:45:31.944Z,12.27
2018-01-23T13:48:03.027Z,8.63
2018-01-23T13:50:34.127Z,8.07
2018-01-23T13:53:05.249Z,5.53
2018-01-23T13:55:36.336Z,8.33
2018-01-23T13:58:07.390Z,7.57
2018-01-23T14:00:38.463Z,9.93
2018-01-23T14:03:09.539Z,7.53
2018-01-23T14:05:40.578Z,10.13
2018-01-23T14:08:11.697Z,8.77
2018-01-23T14:10:42.786Z,10.43
2018-01-23T14:13:13.896Z,10.07
2018-01-23T14:15:45.010Z,8.33
2018-01-23T14:18:16.157Z,9.30
2018-01-23T14:20:47.244Z,5.93
2018-01-23T14:23:18.294Z,11.33
2018-01-23T14:25:49.371Z,9.07
2018-01-23T14:28:20.441Z,7.10
2018-01-23T14:30:51.538Z,6.53
2018-01-23T14:33:22.604Z,6.37
2018-01-23T14:35:53.676Z,9.03
2018-01-23T14:38:24.752Z,8.63
2018-01-23T14:40:55.840Z,10.33
2018-01-23T14:43:26.910Z,9.90
2018-01-23T14:45:57.990Z,8.63
2018-01-23T14:48:29.049Z,16.20
2018-01-23T14:51:00.164Z,8.13
2018-01-23T14:53:31.243Z,8.70
2018-01-23T14:56:02.357Z,7.53
2018-01-23T14:58:33.427Z,9.63
2018-01-23T15:01:04.468Z,10.63
2018-01-23T15:03:35.595Z,11.47
2018-01-23T15:06:06.643Z,9.77
2018-01-23T15:08:37.719Z,8.33
2018-01-23T15:11:08.801Z,9.53
2018-01-23T15:13:39.871Z,8.53
2018-01-23T15:16:10.981Z,10.10
2018-01-23T15:18:42.072Z,8.40
2018-01-23T15:21:13.287Z,11.77
2018-01-23T15:23:44.332Z,11.70
2018-01-23T15:26:15.395Z,12.83
2018-01-23T15:28:46.520Z,11.33
2018-01-23T15:31:17.601Z,16.37
2018-01-23T15:33:48.648Z,12.07
2018-01-23T15:36:19.778Z,13.50
2018-01-23T15:38:50.824Z,11.93
2018-01-23T15:41:21.900Z,16.60
2018-01-23T15:43:52.998Z,12.60
2018-01-23T15:46:24.066Z,11.03
2018-01-23T15:48:55.154Z,9.07
2018-01-23T15:51:26.269Z,12.77
2018-01-23T15:53:57.367Z,11.60
2018-01-23T15:56:28.452Z,11.13
2018-01-23T15:58:59.562Z,9.70
2018-01-23T16:01:30.598Z,13.63
2018-01-23T16:04:01.722Z,15.17
2018-01-23T16:06:32.841Z,12.30
2018-01-23T16:09:03.989Z,9.60
2018-01-23T16:11:35.041Z,9.97
2018-01-23T16:14:06.097Z,13.17
2018-01-23T16:16:37.201Z,11.73
2018-01-23T16:19:08.316Z,16.93
2018-01-23T16:21:40.138Z,13.97
2018-01-23T16:24:11.200Z,16.83
2018-01-23T16:26:42.534Z,14.47
2018-01-23T16:29:13.621Z,13.80
2018-01-23T16:31:44.693Z,13.37
2018-01-23T16:34:15.750Z,11.73
2018-01-23T16:36:46.831Z,11.93
2018-01-23T16:39:17.902Z,12.30
2018-01-23T16:41:49.006Z,16.60
2018-01-23T16:44:20.070Z,15.17
2018-01-23T16:46:51.186Z,16.03
2018-01-23T16:49:22.265Z,12.13
2018-01-23T16:51:53.336Z,12.80
2018-01-23T16:54:24.407Z,12.43
2018-01-23T16:56:55.522Z,12.33
2018-01-23T16:59:26.686Z,11.87
2018-01-23T17:01:57.819Z,13.53
2018-01-23T17:04:28.897Z,12.30
2018-01-23T17:06:59.965Z,12.23
2018-01-23T17:09:31.097Z,15.40
2018-01-23T17:12:02.130Z,18.37
2018-01-23T17:14:33.190Z,14.43
2018-01-23T17:17:04.242Z,17.93
2018-01-23T17:19:35.344Z,10.20
2018-01-23T17:22:06.416Z,13.63
2018-01-23T17:24:37.536Z,12.73
2018-01-23T17:27:08.680Z,11.30
2018-01-23T17:29:39.772Z,12.70
2018-01-23T17:32:10.881Z,10.80
2018-01-23T17:34:41.918Z,11.63
2018-01-23T17:37:12.993Z,9.70
2018-01-23T17:39:44.078Z,9.63
2018-01-23T17:42:15.160Z,11.00
2018-01-23T17:44:46.291Z,7.17
2018-01-23T17:47:17.371Z,8.47
2018-01-23T17:49:48.524Z,7.70
2018-01-23T17:52:19.610Z,7.23
2018-01-23T17:54:50.724Z,7.37
2018-01-23T17:57:21.920Z,7.60
2018-01-23T17:59:52.990Z,11.43
2018-01-23T18:02:24.093Z,11.90
2018-01-23T18:04:55.144Z,7.33
2018-01-23T18:07:26.270Z,8.00
2018-01-23T18:09:57.393Z,8.27
2018-01-23T18:12:28.478Z,7.67
2018-01-23T18:14:59.547Z,9.23
2018-01-23T18:17:30.648Z,9.93
2018-01-23T18:20:01.744Z,8.93
2018-01-23T18:22:32.828Z,9.77
2018-01-23T18:25:03.916Z,8.60
2018-01-23T18:27:34.996Z,10.67
2018-01-23T18:30:06.117Z,5.83
2018-01-23T18:32:38.179Z,8.90
2018-01-23T18:35:09.320Z,8.77
2018-01-23T18:37:41.016Z,8.23
2018-01-23T18:40:12.095Z,7.97
2018-01-23T18:42:43.166Z,9.97
2018-01-23T18:45:14.259Z,10.90
2018-01-23T18:47:45.352Z,11.23
2018-01-23T18:50:16.474Z,8.20
2018-01-23T18:52:47.583Z,10.60
2018-01-23T18:55:18.680Z,10.33
2018-01-23T18:57:49.820Z,10.20
2018-01-23T19:00:20.928Z,11.40
2018-01-23T19:02:52.044Z,13.20
2018-01-23T19:05:23.138Z,10.60
2018-01-23T19:07:54.218Z,15.80
2018-01-23T19:10:25.311Z,13.17
2018-01-23T19:12:56.343Z,14.87
2018-01-23T19:15:27.473Z,12.23
2018-01-23T19:17:58.574Z,12.00
2018-01-23T19:20:29.695Z,17.73
2018-01-23T19:23:00.846Z,14.30
2018-01-23T19:25:32.445Z,13.50
2018-01-23T19:28:03.567Z,12.30
2018-01-23T19:30:34.650Z,9.13
2018-01-23T19:33:05.797Z,12.43
2018-01-23T19:35:36.882Z,12.57
2018-01-23T19:38:08.220Z,9.00
2018-01-23T19:40:39.356Z,10.57
2018-01-23T19:43:10.423Z,10.03
2018-01-23T19:45:41.518Z,10.23
2018-01-23T19:48:12.684Z,12.13
2018-01-23T19:50:43.740Z,12.77
2018-01-23T19:53:14.857Z,12.00
2018-01-23T19:55:47.024Z,7.97
2018-01-23T19:58:18.129Z,9.53
2018-01-23T20:00:49.239Z,12.53
2018-01-23T20:03:20.397Z,10.07
2018-01-23T20:05:51.556Z,8.70
2018-01-23T20:08:22.677Z,10.27
2018-01-23T20:10:53.769Z,8.37
2018-01-23T20:13:24.977Z,9.67
2018-01-23T20:15:56.053Z,9.83
2018-01-23T20:18:27.175Z,10.87
2018-01-23T20:20:58.256Z,9.60
2018-01-23T20:23:29.526Z,9.77
2018-01-23T20:26:00.619Z,10.50
2018-01-23T20:28:31.708Z,9.97
2018-01-23T20:31:02.823Z,9.27
2018-01-23T20:33:33.910Z,12.87
2018-01-23T20:36:05.089Z,6.07
2018-01-23T20:38:36.201Z,13.33
2018-01-23T20:41:07.304Z,8.60
2018-01-23T20:43:38.439Z,8.97
2018-01-23T20:46:09.509Z,10.53
2018-01-23T20:48:40.585Z,10.63
2018-01-23T20:51:11.672Z,8.87
2018-01-23T20:53:42.796Z,8.80
2018-01-23T20:56:13.863Z,9.23
2018-01-23T20:58:45.069Z,10.47
2018-01-23T21:01:16.210Z,9.60
2018-01-23T21:03:47.320Z,8.50
2018-01-23T21:06:18.403Z,8.60
2018-01-23T21:08:49.519Z,8.13
2018-01-23T21:11:20.596Z,8.50
2018-01-23T21:13:51.708Z,11.30
2018-01-23T21:16:22.781Z,11.00
2018-01-23T21:18:53.897Z,8.60
2018-01-23T21:21:25.014Z,8.57
2018-01-23T21:23:56.105Z,9.13
2018-01-23T21:26:27.255Z,8.40
2018-01-23T21:28:58.297Z,6.17
2018-01-23T21:31:29.399Z,8.57
2018-01-23T21:34:00.505Z,7.33
2018-01-23T21:36:31.717Z,7.63
2018-01-23T21:39:02.810Z,6.33
2018-01-23T21:41:33.956Z,8.27
2018-01-23T21:44:04.989Z,7.73
2018-01-23T21:46:36.047Z,6.83
2018-01-23T21:49:07.223Z,8.03
2018-01-23T21:51:38.284Z,9.37
2018-01-23T21:54:09.355Z,8.90
2018-01-23T21:56:40.461Z,10.07
2018-01-23T21:59:11.559Z,11.07
2018-01-23T22:01:42.802Z,10.63
2018-01-23T22:04:13.863Z,8.27
2018-01-23T22:06:44.965Z,9.93
2018-01-23T22:09:16.074Z,8.50
2018-01-23T22:11:47.333Z,8.43
2018-01-23T22:14:18.407Z,7.97
2018-01-23T22:16:49.543Z,9.30
2018-01-23T22:19:20.668Z,7.40
2018-01-23T22:21:51.762Z,8.93
2018-01-23T22:24:22.819Z,13.63
2018-01-23T22:26:53.864Z,10.07
2018-01-23T22:29:24.998Z,11.47
2018-01-23T22:31:56.066Z,10.23
2018-01-23T22:34:34.072Z,9.20
2018-01-23T22:37:05.185Z,8.77
2018-01-23T22:39:36.238Z,12.83
2018-01-23T22:42:07.314Z,8.17
2018-01-23T22:44:38.416Z,9.80
2018-01-23T22:47:09.583Z,13.63
2018-01-23T22:49:40.696Z,11.47
2018-01-23T22:52:11.763Z,17.77
2018-01-23T22:54:42.848Z,9.13
2018-01-23T22:57:13.913Z,11.93
2018-01-23T22:59:44.926Z,12.30
2018-01-23T23:02:16.024Z,15.40
2018-01-23T23:04:47.060Z,9.63
2018-01-23T23:07:18.182Z,15.20
2018-01-23T23:09:49.524Z,15.17
2018-01-23T23:12:20.652Z,11.30
2018-01-23T23:14:51.691Z,13.43
2018-01-23T23:17:22.764Z,13.90
2018-01-23T23:19:53.827Z,12.87
2018-01-23T23:22:24.920Z,10.27
2018-01-23T23:24:55.997Z,10.83
2018-01-23T23:27:27.092Z,10.17
2018-01-23T23:29:58.222Z,12.23
2018-01-23T23:32:29.299Z,11.30
2018-01-23T23:35:00.390Z,10.87
2018-01-23T23:37:31.490Z,7.93
2018-01-23T23:40:02.606Z,10.80
2018-01-23T23:42:33.690Z,8.17
2018-01-23T23:45:04.788Z,9.90
2018-01-23T23:47:35.828Z,13.90
2018-01-23T23:50:06.950Z,10.13
2018-01-23T23:52:38.093Z,9.60
2018-01-23T23:55:09.268Z,14.63
2018-01-23T23:57:40.810Z,11.13
